createdAt,value
2022-11-16T00:01:23.574Z,13.48
2022-11-16T00:03:59.372Z,14.63
2022-11-16T00:06:36.447Z,13.70
2022-11-16T00:09:23.299Z,15.32
2022-11-16T00:11:59.930Z,14.82
2022-11-16T00:14:34.231Z,14.32
2022-11-16T00:17:05.936Z,14.38
2022-11-16T00:19:37.593Z,13.90
2022-11-16T00:22:10.449Z,14.57
2022-11-16T00:24:46.937Z,14.55
2022-11-16T00:27:18.582Z,14.43
2022-11-16T00:29:50.208Z,14.07
2022-11-16T00:32:21.878Z,14.77
2022-11-16T00:34:53.456Z,14.95
2022-11-16T00:37:29.039Z,14.98
2022-11-16T00:40:03.601Z,15.07
2022-11-16T00:42:37.427Z,15.57
2022-11-16T00:45:10.059Z,11.67
2022-11-16T00:47:42.154Z,14.63
2022-11-16T00:50:13.823Z,15.43
2022-11-16T00:52:47.635Z,14.90
2022-11-16T00:55:24.866Z,15.50
2022-11-16T00:58:00.389Z,15.90
2022-11-16T01:00:32.263Z,15.10
2022-11-16T01:03:04.306Z,14.10
2022-11-16T01:05:36.214Z,15.60
2022-11-16T01:08:08.054Z,15.85
2022-11-16T01:10:45.003Z,15.75
2022-11-16T01:13:19.494Z,16.77
2022-11-16T01:15:53.514Z,16.83
2022-11-16T01:18:25.164Z,14.30
2022-11-16T01:20:57.146Z,16.45
2022-11-16T01:23:28.803Z,17.52
2022-11-16T01:26:03.381Z,16.77
2022-11-16T01:28:38.724Z,16.08
2022-11-16T01:31:12.026Z,16.95
2022-11-16T01:33:44.577Z,15.38
2022-11-16T01:36:33.223Z,15.73
2022-11-16T01:39:06.639Z,15.63
2022-11-16T01:41:49.978Z,16.77
2022-11-16T01:44:55.184Z,16.35
2022-11-16T01:47:27.441Z,16.00
2022-11-16T01:50:07.262Z,15.65
2022-11-16T01:52:47.697Z,14.18
2022-11-16T01:55:21.120Z,13.30
2022-11-16T01:58:10.660Z,15.48
2022-11-16T02:00:45.092Z,13.63
2022-11-16T02:03:37.902Z,14.20
2022-11-16T02:06:16.180Z,13.13
2022-11-16T02:09:55.603Z,13.82
2022-11-16T02:12:44.424Z,14.60
2022-11-16T02:15:43.840Z,13.25
2022-11-16T02:18:58.691Z,13.77
2022-11-16T02:21:45.145Z,13.85
2022-11-16T02:25:00.362Z,13.20
2022-11-16T02:28:15.625Z,14.20
2022-11-16T02:30:53.296Z,12.85
2022-11-16T02:33:34.817Z,13.52
2022-11-16T02:36:13.268Z,12.68
2022-11-16T02:38:54.878Z,12.85
2022-11-16T02:41:31.464Z,13.30
2022-11-16T02:44:10.127Z,12.65
2022-11-16T02:46:45.745Z,13.35
2022-11-16T02:49:19.875Z,12.98
2022-11-16T02:51:54.162Z,12.23
2022-11-16T02:54:28.044Z,13.38
2022-11-16T02:57:04.415Z,12.88
2022-11-16T02:59:46.545Z,14.23
2022-11-16T03:02:30.146Z,13.05
2022-11-16T03:05:41.172Z,12.90
2022-11-16T03:08:40.924Z,14.20
2022-11-16T03:11:33.564Z,13.20
2022-11-16T03:14:09.634Z,13.90
2022-11-16T03:16:49.603Z,13.38
2022-11-16T03:19:32.617Z,13.30
2022-11-16T03:22:14.663Z,13.50
2022-11-16T03:24:48.391Z,13.57
2022-11-16T03:28:04.709Z,12.65
2022-11-16T03:31:09.714Z,12.88
2022-11-16T03:34:03.332Z,13.95
2022-11-16T03:36:39.003Z,14.48
2022-11-16T03:39:21.940Z,12.80
2022-11-16T03:41:54.660Z,12.48
2022-11-16T03:44:27.889Z,12.73
2022-11-16T03:46:59.567Z,12.82
2022-11-16T03:49:31.484Z,12.77
2022-11-16T03:52:04.194Z,12.88
2022-11-16T03:54:38.276Z,12.43
2022-11-16T03:57:15.580Z,13.05
2022-11-16T03:59:53.202Z,13.00
2022-11-16T04:02:25.183Z,13.82
2022-11-16T04:05:26.622Z,12.82
2022-11-16T04:08:16.714Z,11.43
2022-11-16T04:11:07.217Z,11.98
2022-11-16T04:13:57.753Z,12.60
2022-11-16T04:16:48.026Z,12.48
2022-11-16T04:19:38.360Z,12.18
2022-11-16T04:22:39.895Z,13.30
2022-11-16T04:25:23.740Z,12.63
2022-11-16T04:28:15.376Z,13.65
2022-11-16T04:31:16.880Z,12.80
2022-11-16T04:34:13.001Z,13.35
2022-11-16T04:37:08.806Z,12.68
2022-11-16T04:39:40.623Z,12.23
2022-11-16T04:42:20.189Z,14.35
2022-11-16T04:45:13.740Z,12.75
2022-11-16T04:47:51.918Z,12.65
2022-11-16T04:50:25.388Z,12.60
2022-11-16T04:52:57.388Z,13.43
2022-11-16T04:55:29.012Z,12.35
2022-11-16T04:58:01.475Z,12.65
2022-11-16T05:00:33.189Z,11.50
2022-11-16T05:03:06.118Z,11.80
2022-11-16T05:05:38.272Z,13.60
2022-11-16T05:08:10.486Z,14.05
2022-11-16T05:10:42.900Z,12.02
2022-11-16T05:13:14.821Z,14.40
2022-11-16T05:15:46.750Z,13.70
2022-11-16T05:18:20.693Z,11.88
2022-11-16T05:21:01.711Z,12.10
2022-11-16T05:23:57.107Z,13.10
2022-11-16T05:26:33.499Z,12.35
2022-11-16T05:29:07.205Z,11.63
2022-11-16T05:31:41.893Z,12.95
2022-11-16T05:34:14.289Z,12.85
2022-11-16T05:36:45.965Z,12.55
2022-11-16T05:39:19.339Z,12.77
2022-11-16T05:41:52.445Z,12.13
2022-11-16T05:44:28.116Z,12.20
2022-11-16T05:47:01.124Z,12.90
2022-11-16T05:49:39.365Z,12.77
2022-11-16T05:52:10.990Z,13.23
2022-11-16T05:54:44.187Z,13.13
2022-11-16T05:57:17.457Z,12.82
2022-11-16T05:59:49.413Z,13.65
2022-11-16T06:02:26.319Z,12.32
2022-11-16T06:04:57.960Z,12.02
2022-11-16T06:07:34.363Z,12.38
2022-11-16T06:10:09.382Z,13.88
2022-11-16T06:12:44.730Z,13.77
2022-11-16T06:15:16.475Z,13.73
2022-11-16T06:17:48.303Z,12.95
2022-11-16T06:20:21.276Z,12.43
2022-11-16T06:22:53.175Z,13.05
2022-11-16T06:25:30.855Z,12.05
2022-11-16T06:28:07.544Z,13.55
2022-11-16T06:30:41.082Z,12.20
2022-11-16T06:33:14.319Z,12.77
2022-11-16T06:35:46.121Z,12.30
2022-11-16T06:38:25.866Z,12.55
2022-11-16T06:40:59.570Z,13.77
2022-11-16T06:43:34.022Z,12.32
2022-11-16T06:46:06.787Z,13.10
2022-11-16T06:48:41.191Z,13.32
2022-11-16T06:51:17.094Z,14.40
2022-11-16T06:53:48.749Z,14.38
2022-11-16T06:56:20.717Z,14.90
2022-11-16T06:58:57.399Z,16.23
2022-11-16T07:01:32.108Z,15.23
2022-11-16T07:04:15.959Z,17.58
2022-11-16T07:06:54.573Z,18.88
2022-11-16T07:09:26.363Z,18.88
2022-11-16T07:11:58.149Z,18.88
2022-11-16T07:14:29.916Z,18.42
2022-11-16T07:17:08.040Z,15.15
2022-11-16T07:19:43.942Z,15.40
2022-11-16T07:22:15.701Z,15.43
2022-11-16T07:24:50.983Z,15.75
2022-11-16T07:27:24.713Z,15.68
2022-11-16T07:29:57.433Z,14.63
2022-11-16T07:33:02.734Z,14.45
2022-11-16T07:36:24.288Z,15.40
2022-11-16T07:39:02.109Z,13.25
2022-11-16T07:41:38.521Z,14.93
2022-11-16T07:44:20.306Z,12.63
2022-11-16T07:47:10.273Z,13.27
2022-11-16T07:49:44.485Z,13.02
2022-11-16T07:52:23.166Z,14.07
2022-11-16T07:55:01.847Z,11.25
2022-11-16T07:57:35.140Z,12.18
2022-11-16T08:00:11.931Z,12.43
2022-11-16T08:02:51.136Z,12.23
2022-11-16T08:05:25.120Z,11.88
2022-11-16T08:07:56.776Z,11.18
2022-11-16T08:10:31.228Z,11.68
2022-11-16T08:13:04.788Z,11.38
2022-11-16T08:15:39.475Z,12.52
2022-11-16T08:18:13.993Z,12.65
2022-11-16T08:20:46.127Z,12.38
2022-11-16T08:23:44.930Z,12.10
2022-11-16T08:26:22.090Z,12.15
2022-11-16T08:29:01.674Z,13.60
2022-11-16T08:31:38.196Z,15.13
2022-11-16T08:34:16.470Z,16.55
2022-11-16T08:36:53.143Z,16.13
2022-11-16T08:39:30.694Z,14.98
2022-11-16T08:42:03.677Z,16.40
2022-11-16T08:44:35.372Z,15.23
2022-11-16T08:47:11.121Z,16.10
2022-11-16T08:49:49.664Z,13.82
2022-11-16T08:54:59.193Z,14.00
2022-11-16T08:57:30.838Z,13.10
2022-11-16T09:00:07.148Z,15.75
2022-11-16T09:02:39.102Z,14.38
2022-11-16T09:05:36.162Z,14.57
2022-11-16T09:08:07.773Z,14.68
2022-11-16T09:10:39.392Z,14.82
2022-11-16T09:13:13.373Z,13.75
2022-11-16T09:15:45.494Z,14.05
2022-11-16T09:18:17.518Z,14.02
2022-11-16T09:20:52.227Z,14.23
2022-11-16T09:26:01.504Z,14.45
2022-11-16T09:28:34.122Z,15.93
2022-11-16T09:31:10.149Z,13.85
2022-11-16T09:33:48.956Z,15.75
2022-11-16T09:36:21.365Z,15.75
2022-11-16T09:39:19.413Z,15.93
2022-11-16T09:42:27.538Z,15.50
2022-11-16T09:45:15.047Z,15.65
2022-11-16T09:47:57.611Z,14.77
2022-11-16T09:50:45.844Z,14.52
2022-11-16T09:53:56.001Z,14.40
2022-11-16T09:56:31.188Z,14.60
2022-11-16T09:59:13.569Z,13.75
2022-11-16T10:02:19.481Z,13.85
2022-11-16T10:05:03.058Z,14.35
2022-11-16T10:07:48.550Z,14.38
2022-11-16T10:10:28.937Z,15.27
2022-11-16T10:13:11.300Z,14.05
2022-11-16T10:16:00.723Z,13.98
2022-11-16T10:18:49.541Z,14.02
2022-11-16T10:21:24.091Z,14.30
2022-11-16T10:24:29.660Z,13.10
2022-11-16T10:27:29.666Z,13.80
2022-11-16T10:30:11.877Z,15.25
2022-11-16T10:33:02.828Z,13.52
2022-11-16T10:35:48.704Z,13.02
2022-11-16T10:38:30.968Z,13.55
2022-11-16T10:41:24.457Z,14.70
2022-11-16T10:43:59.503Z,12.93
2022-11-16T10:46:33.656Z,12.35
2022-11-16T10:49:30.343Z,12.77
2022-11-16T10:52:02.533Z,14.02
2022-11-16T10:54:34.162Z,13.32
2022-11-16T10:57:17.913Z,13.02
2022-11-16T10:59:55.459Z,13.63
2022-11-16T11:02:34.953Z,12.95
2022-11-16T11:05:22.444Z,13.90
2022-11-16T11:08:10.273Z,13.10
2022-11-16T11:10:42.724Z,12.90
2022-11-16T11:13:14.304Z,13.00
2022-11-16T11:15:47.567Z,13.02
2022-11-16T11:18:31.648Z,12.60
2022-11-16T11:21:07.651Z,12.73
2022-11-16T11:23:46.791Z,12.82
2022-11-16T11:26:40.179Z,13.30
2022-11-16T11:29:20.996Z,12.48
2022-11-16T11:31:57.695Z,12.75
2022-11-16T11:34:39.803Z,16.23
2022-11-16T11:37:34.031Z,15.68
2022-11-16T11:40:26.834Z,14.70
2022-11-16T11:43:02.695Z,14.40
2022-11-16T11:46:00.846Z,14.85
2022-11-16T11:48:42.226Z,14.35
2022-11-16T11:51:24.710Z,14.20
2022-11-16T11:53:58.654Z,14.13
2022-11-16T11:56:32.352Z,18.52
2022-11-16T11:59:04.791Z,14.88
2022-11-16T12:01:48.324Z,14.98
2022-11-16T12:04:54.873Z,15.50
2022-11-16T12:08:21.370Z,14.68
2022-11-16T12:11:01.126Z,13.40
2022-11-16T12:13:33.056Z,14.68
2022-11-16T12:16:07.999Z,16.10
2022-11-16T12:21:39.353Z,13.63
2022-11-16T12:24:42.028Z,14.93
2022-11-16T12:27:32.104Z,14.63
2022-11-16T12:30:11.492Z,16.15
2022-11-16T12:33:10.858Z,14.90
2022-11-16T12:36:03.967Z,14.25
2022-11-16T12:38:51.970Z,14.38
2022-11-16T12:41:31.523Z,13.23
2022-11-16T12:44:10.878Z,14.93
2022-11-16T12:47:05.980Z,15.30
2022-11-16T12:50:00.410Z,13.73
2022-11-16T12:53:03.829Z,14.60
2022-11-16T12:56:02.618Z,13.82
2022-11-16T12:58:39.901Z,15.07
2022-11-16T13:01:25.098Z,13.35
2022-11-16T13:04:05.632Z,14.90
2022-11-16T13:06:43.851Z,12.77
2022-11-16T13:09:27.642Z,15.00
2022-11-16T13:12:05.158Z,14.40
2022-11-16T13:14:46.700Z,15.40
2022-11-16T13:17:28.450Z,14.57
2022-11-16T13:20:14.951Z,14.88
2022-11-16T13:23:15.753Z,15.25
2022-11-16T13:26:15.261Z,14.07
2022-11-16T13:29:15.264Z,15.45
2022-11-16T13:32:02.168Z,15.82
2022-11-16T13:34:37.687Z,16.13
2022-11-16T13:37:38.179Z,17.70
2022-11-16T13:40:20.257Z,17.23
2022-11-16T13:45:57.737Z,17.08
2022-11-16T13:48:34.852Z,17.90
2022-11-16T13:51:16.571Z,17.77
2022-11-16T13:56:51.323Z,17.15
2022-11-16T13:59:30.364Z,17.13
2022-11-16T14:02:23.360Z,19.25
2022-11-16T14:05:02.040Z,17.75
2022-11-16T14:07:35.737Z,18.40
2022-11-16T14:10:07.946Z,18.83
2022-11-16T14:12:51.560Z,17.08
2022-11-16T14:15:36.808Z,17.42
2022-11-16T14:18:09.212Z,17.10
2022-11-16T14:21:20.616Z,17.27
2022-11-16T14:24:16.799Z,17.67
2022-11-16T14:27:06.838Z,17.42
2022-11-16T14:30:11.150Z,17.63
2022-11-16T14:32:57.319Z,17.67
2022-11-16T14:35:36.455Z,17.33
2022-11-16T14:38:26.682Z,18.05
2022-11-16T14:41:00.226Z,17.55
2022-11-16T14:43:40.693Z,19.05
2022-11-16T14:46:36.143Z,18.33
2022-11-16T14:51:47.579Z,19.23
2022-11-16T14:54:46.028Z,18.52
2022-11-16T14:57:20.030Z,19.83
2022-11-16T15:00:19.123Z,21.05
2022-11-16T15:02:55.380Z,21.10
2022-11-16T15:05:35.383Z,22.90
2022-11-16T15:08:17.601Z,20.33
2022-11-16T15:10:52.928Z,21.00
2022-11-16T15:13:27.435Z,20.50
2022-11-16T15:16:16.350Z,20.75
2022-11-16T15:18:59.536Z,21.65
2022-11-16T15:21:31.141Z,21.48
2022-11-16T15:27:20.352Z,21.05
2022-11-16T15:29:52.156Z,20.27
2022-11-16T15:32:23.844Z,21.08
2022-11-16T15:34:55.547Z,20.33
2022-11-16T15:37:31.065Z,21.20
2022-11-16T15:40:03.441Z,21.40
2022-11-16T15:42:37.145Z,21.00
2022-11-16T15:45:24.173Z,20.80
2022-11-16T15:47:58.860Z,20.02
2022-11-16T15:50:31.065Z,19.38
2022-11-16T15:53:02.706Z,21.20
2022-11-16T15:55:40.962Z,19.30
2022-11-16T15:58:18.832Z,19.95
2022-11-16T16:00:50.492Z,18.55
2022-11-16T16:03:27.830Z,20.67
2022-11-16T16:05:59.466Z,20.67
2022-11-16T16:08:38.687Z,18.88
2022-11-16T16:11:16.038Z,19.92
2022-11-16T16:14:02.421Z,18.80
2022-11-16T16:16:38.256Z,17.95
2022-11-16T16:19:36.621Z,18.48
2022-11-16T16:22:27.812Z,18.98
2022-11-16T16:25:00.653Z,19.08
2022-11-16T16:27:38.831Z,17.77
2022-11-16T16:30:14.524Z,17.80
2022-11-16T16:32:51.873Z,17.02
2022-11-16T16:35:25.217Z,15.70
2022-11-16T16:38:01.260Z,18.65
2022-11-16T16:40:32.902Z,17.23
2022-11-16T16:43:04.499Z,16.85
2022-11-16T16:45:43.077Z,15.18
2022-11-16T16:48:15.059Z,17.85
2022-11-16T16:50:46.684Z,15.90
2022-11-16T16:53:18.546Z,15.02
2022-11-16T16:55:54.029Z,15.70
2022-11-16T16:58:25.712Z,15.05
2022-11-16T17:01:01.355Z,15.75
2022-11-16T17:03:33.507Z,15.93
2022-11-16T17:06:05.801Z,16.30
2022-11-16T17:08:37.617Z,17.35
2022-11-16T17:11:10.025Z,16.98
2022-11-16T17:13:42.016Z,17.00
2022-11-16T17:16:13.674Z,17.25
2022-11-16T17:18:47.390Z,17.50
2022-11-16T17:21:19.031Z,15.98
2022-11-16T17:23:50.696Z,16.88
2022-11-16T17:26:22.394Z,16.85
2022-11-16T17:28:58.005Z,16.17
2022-11-16T17:31:29.662Z,15.52
2022-11-16T17:34:01.340Z,15.77
2022-11-16T17:36:32.961Z,15.57
2022-11-16T17:39:04.720Z,14.93
2022-11-16T17:41:36.922Z,16.77
2022-11-16T17:44:09.319Z,15.90
2022-11-16T17:46:40.969Z,14.93
2022-11-16T17:49:12.623Z,15.27
2022-11-16T17:51:44.408Z,15.32
2022-11-16T17:54:16.040Z,15.52
2022-11-16T17:56:47.809Z,15.93
2022-11-16T17:59:19.426Z,16.00
2022-11-16T18:01:51.357Z,14.88
2022-11-16T18:04:23.630Z,16.23
2022-11-16T18:06:56.089Z,15.25
2022-11-16T18:09:27.822Z,15.23
2022-11-16T18:12:00.008Z,14.60
2022-11-16T18:14:33.023Z,15.38
2022-11-16T18:17:04.666Z,15.88
2022-11-16T18:19:36.282Z,16.08
2022-11-16T18:22:10.922Z,16.23
2022-11-16T18:24:42.599Z,15.95
2022-11-16T18:27:15.447Z,15.80
2022-11-16T18:29:47.959Z,16.13
2022-11-16T18:32:21.224Z,15.85
2022-11-16T18:34:53.272Z,15.73
2022-11-16T18:37:24.882Z,16.67
2022-11-16T18:39:56.509Z,15.35
2022-11-16T18:42:28.139Z,15.98
2022-11-16T18:44:59.817Z,16.27
2022-11-16T18:47:34.411Z,17.70
2022-11-16T18:50:16.388Z,16.40
2022-11-16T18:52:50.789Z,16.88
2022-11-16T18:55:22.421Z,16.13
2022-11-16T18:57:54.051Z,16.17
2022-11-16T19:00:25.668Z,15.57
2022-11-16T19:02:57.315Z,13.57
2022-11-16T19:05:28.967Z,14.75
2022-11-16T19:08:03.232Z,13.13
2022-11-16T19:10:38.799Z,14.07
2022-11-16T19:13:13.169Z,13.63
2022-11-16T19:15:44.959Z,13.35
2022-11-16T19:18:21.027Z,12.35
2022-11-16T19:21:06.662Z,10.38
2022-11-16T19:23:44.704Z,9.85
2022-11-16T19:26:18.378Z,10.05
2022-11-16T19:28:51.187Z,10.25
2022-11-16T19:31:26.278Z,8.02
2022-11-16T19:34:00.987Z,7.43
2022-11-16T19:39:05.885Z,7.07
2022-11-16T19:41:37.583Z,7.25
2022-11-16T19:44:09.365Z,7.38
2022-11-16T19:46:41.118Z,6.55
2022-11-16T19:49:19.724Z,6.82
2022-11-16T19:51:52.100Z,6.65
2022-11-16T19:54:23.658Z,7.13
2022-11-16T19:56:55.497Z,6.90
2022-11-16T19:59:27.120Z,7.05
2022-11-16T20:01:58.821Z,7.10
2022-11-16T20:04:34.235Z,7.82
2022-11-16T20:07:08.503Z,7.35
2022-11-16T20:09:40.244Z,7.85
2022-11-16T20:12:11.875Z,7.68
2022-11-16T20:14:43.613Z,8.20
2022-11-16T20:17:15.525Z,7.75
2022-11-16T20:19:47.448Z,7.68
2022-11-16T20:22:19.093Z,8.45
2022-11-16T20:24:50.790Z,7.97
2022-11-16T20:27:22.781Z,8.45
2022-11-16T20:29:54.361Z,7.68
2022-11-16T20:32:25.976Z,7.60
2022-11-16T20:35:00.557Z,7.82
2022-11-16T20:37:34.228Z,8.45
2022-11-16T20:40:06.498Z,7.78
2022-11-16T20:42:38.137Z,8.02
2022-11-16T20:45:10.429Z,8.32
2022-11-16T20:47:42.474Z,7.60
2022-11-16T20:50:14.335Z,8.32
2022-11-16T20:52:49.950Z,7.55
2022-11-16T20:55:24.255Z,8.85
2022-11-16T20:57:55.896Z,7.60
2022-11-16T21:00:27.549Z,7.78
2022-11-16T21:02:59.220Z,8.15
2022-11-16T21:05:30.864Z,8.38
2022-11-16T21:08:02.499Z,7.97
2022-11-16T21:10:36.500Z,8.77
2022-11-16T21:13:33.199Z,8.93
2022-11-16T21:16:13.063Z,9.05
2022-11-16T21:18:44.681Z,8.38
2022-11-16T21:21:16.339Z,8.57
2022-11-16T21:23:51.784Z,8.07
2022-11-16T21:26:25.581Z,8.35
2022-11-16T21:28:58.639Z,8.33
2022-11-16T21:31:33.707Z,8.10
2022-11-16T21:34:07.263Z,9.15
2022-11-16T21:36:39.361Z,8.10
2022-11-16T21:39:11.033Z,8.45
2022-11-16T21:41:42.620Z,8.63
2022-11-16T21:44:14.264Z,8.55
2022-11-16T21:46:45.855Z,7.90
2022-11-16T21:49:17.637Z,8.00
2022-11-16T21:51:50.738Z,8.70
2022-11-16T21:54:44.358Z,7.35
2022-11-16T21:57:16.342Z,8.32
2022-11-16T21:59:47.962Z,7.65
2022-11-16T22:02:19.797Z,7.75
2022-11-16T22:05:09.814Z,7.68
2022-11-16T22:07:43.457Z,8.60
2022-11-16T22:10:15.212Z,8.60
2022-11-16T22:12:46.828Z,7.90
2022-11-16T22:15:18.494Z,8.68
2022-11-16T22:17:50.091Z,7.93
2022-11-16T22:20:21.822Z,9.23
2022-11-16T22:22:53.516Z,8.38
2022-11-16T22:25:25.602Z,8.00
2022-11-16T22:30:52.081Z,8.13
2022-11-16T22:33:27.266Z,8.50
2022-11-16T22:35:59.021Z,8.77
2022-11-16T22:38:31.146Z,8.90
2022-11-16T22:41:03.004Z,8.88
2022-11-16T22:43:35.938Z,9.55
2022-11-16T22:46:10.669Z,9.57
2022-11-16T22:48:43.304Z,8.20
2022-11-16T22:51:19.386Z,8.63
2022-11-16T22:53:56.115Z,9.63
2022-11-16T22:56:30.670Z,8.90
2022-11-16T22:59:02.610Z,10.02
2022-11-16T23:01:34.308Z,8.32
2022-11-16T23:04:05.962Z,9.55
2022-11-16T23:06:40.423Z,14.48
2022-11-16T23:09:12.084Z,13.40
2022-11-16T23:12:01.952Z,10.38
2022-11-16T23:14:51.841Z,8.85
2022-11-16T23:17:23.497Z,9.05
2022-11-16T23:20:17.629Z,9.35
2022-11-16T23:23:07.979Z,9.97
2022-11-16T23:25:58.355Z,9.68
2022-11-16T23:28:30.030Z,9.20
2022-11-16T23:31:01.641Z,9.93
2022-11-16T23:33:45.340Z,10.48
2022-11-16T23:36:16.998Z,11.05
2022-11-16T23:38:48.605Z,10.93
2022-11-16T23:41:38.685Z,10.68
2022-11-16T23:44:10.377Z,11.60
2022-11-16T23:46:41.989Z,10.30
2022-11-16T23:49:13.597Z,10.55
2022-11-16T23:51:45.358Z,11.00
2022-11-16T23:54:16.978Z,11.13
2022-11-16T23:56:48.540Z,10.48
2022-11-16T23:59:20.182Z,10.57
